createdAt,value
2018-06-12T00:04:52.678Z,99.90
2018-06-12T00:07:20.846Z,99.90
2018-06-12T00:09:48.957Z,99.90
2018-06-12T00:12:18.037Z,99.90
2018-06-12T00:14:46.168Z,99.90
2018-06-12T00:17:14.372Z,99.90
2018-06-12T00:19:42.505Z,99.90
2018-06-12T00:22:10.657Z,99.90
2018-06-12T00:24:38.791Z,99.90
2018-06-12T00:27:06.995Z,99.90
2018-06-12T00:29:35.184Z,99.90
2018-06-12T00:32:03.370Z,99.90
2018-06-12T00:34:31.514Z,99.90
2018-06-12T00:36:59.728Z,99.90
2018-06-12T00:39:28.851Z,99.90
2018-06-12T00:41:57.017Z,99.90
2018-06-12T00:44:25.143Z,99.90
2018-06-12T00:46:53.341Z,99.90
2018-06-12T00:51:49.375Z,99.90
2018-06-12T00:54:18.324Z,99.90
2018-06-12T00:56:57.486Z,99.90
2018-06-12T00:59:25.641Z,99.90
2018-06-12T01:01:53.799Z,99.90
2018-06-12T01:04:21.946Z,99.90
2018-06-12T01:06:50.132Z,99.90
2018-06-12T01:09:18.288Z,99.90
2018-06-12T01:11:46.437Z,99.90
2018-06-12T01:14:14.617Z,99.90
2018-06-12T01:16:42.784Z,99.90
2018-06-12T01:19:10.990Z,99.90
2018-06-12T01:21:40.156Z,99.90
2018-06-12T01:24:08.304Z,99.90
2018-06-12T01:26:36.516Z,99.90
2018-06-12T01:29:04.761Z,99.90
2018-06-12T01:31:32.907Z,99.90
2018-06-12T01:34:01.558Z,99.90
2018-06-12T01:38:57.629Z,99.90
2018-06-12T01:41:25.853Z,99.90
2018-06-12T01:43:54.094Z,99.90
2018-06-12T01:46:22.278Z,99.90
2018-06-12T01:48:50.458Z,99.90
2018-06-12T01:51:18.617Z,99.90
2018-06-12T01:53:47.203Z,99.90
2018-06-12T01:56:15.406Z,99.90
2018-06-12T01:58:43.524Z,99.90
2018-06-12T02:01:11.725Z,99.90
2018-06-12T02:03:39.880Z,99.90
2018-06-12T02:06:08.088Z,99.90
2018-06-12T02:08:36.238Z,99.90
2018-06-12T02:11:04.445Z,99.90
2018-06-12T02:13:32.687Z,99.90
2018-06-12T02:16:00.878Z,99.90
2018-06-12T02:18:29.013Z,99.90
2018-06-12T02:20:57.170Z,99.90
2018-06-12T02:23:25.359Z,99.90
2018-06-12T02:25:53.497Z,99.90
2018-06-12T02:28:21.658Z,99.90
2018-06-12T02:30:49.806Z,99.90
2018-06-12T02:33:17.995Z,99.90
2018-06-12T02:35:46.258Z,99.90
2018-06-12T02:38:14.418Z,99.90
2018-06-12T02:40:42.645Z,99.90
2018-06-12T02:43:10.744Z,99.90
2018-06-12T02:45:38.942Z,99.90
2018-06-12T02:48:07.101Z,99.90
2018-06-12T02:50:35.325Z,99.90
2018-06-12T02:53:03.519Z,99.90
2018-06-12T02:55:31.690Z,99.90
2018-06-12T02:57:59.937Z,99.90
2018-06-12T03:00:28.129Z,99.90
2018-06-12T03:02:56.283Z,99.90
2018-06-12T03:05:24.413Z,99.90
2018-06-12T03:07:52.623Z,99.90
2018-06-12T03:10:20.817Z,99.90
2018-06-12T03:12:48.940Z,99.90
2018-06-12T03:15:17.100Z,99.90
2018-06-12T03:17:45.250Z,99.90
2018-06-12T03:20:13.421Z,99.90
2018-06-12T03:22:41.527Z,99.90
2018-06-12T03:25:09.669Z,99.90
2018-06-12T03:27:37.837Z,99.90
2018-06-12T03:30:05.983Z,99.90
2018-06-12T03:32:34.119Z,99.90
2018-06-12T03:35:02.241Z,99.90
2018-06-12T03:37:30.395Z,99.90
2018-06-12T03:39:58.549Z,99.90
2018-06-12T03:42:26.654Z,99.90
2018-06-12T03:44:54.817Z,99.90
2018-06-12T03:47:22.951Z,99.90
2018-06-12T03:49:51.097Z,99.90
2018-06-12T03:52:26.777Z,99.90
2018-06-12T03:54:54.996Z,99.90
2018-06-12T03:57:23.169Z,99.90
2018-06-12T03:59:51.309Z,99.90
2018-06-12T04:02:20.049Z,99.90
2018-06-12T04:04:48.199Z,99.90
2018-06-12T04:07:16.388Z,99.90
2018-06-12T04:09:44.531Z,99.90
2018-06-12T04:14:42.107Z,99.90
2018-06-12T04:17:10.352Z,99.90
2018-06-12T04:19:38.488Z,99.90
2018-06-12T04:22:06.686Z,99.90
2018-06-12T04:24:35.710Z,99.90
2018-06-12T04:27:03.982Z,99.90
2018-06-12T04:29:32.207Z,99.90
2018-06-12T04:32:02.447Z,99.90
2018-06-12T04:34:30.651Z,99.90
2018-06-12T04:36:58.810Z,99.90
2018-06-12T04:39:26.998Z,99.90
2018-06-12T04:41:55.134Z,99.90
2018-06-12T04:44:23.326Z,99.90
2018-06-12T04:46:51.460Z,99.90
2018-06-12T04:49:19.708Z,99.90
2018-06-12T04:51:47.903Z,99.90
2018-06-12T04:54:16.024Z,99.90
2018-06-12T04:56:44.175Z,99.90
2018-06-12T04:59:12.313Z,99.90
2018-06-12T05:01:40.472Z,99.90
2018-06-12T05:04:08.745Z,99.90
2018-06-12T05:06:36.965Z,99.90
2018-06-12T05:09:06.923Z,99.90
2018-06-12T05:11:35.098Z,99.90
2018-06-12T05:14:03.317Z,99.90
2018-06-12T05:16:31.691Z,99.90
2018-06-12T05:19:00.425Z,99.90
2018-06-12T05:21:28.806Z,99.90
2018-06-12T05:23:57.198Z,99.90
2018-06-12T05:26:25.521Z,99.90
2018-06-12T05:28:53.826Z,99.90
2018-06-12T05:31:22.230Z,99.90
2018-06-12T05:33:50.534Z,99.90
2018-06-12T05:36:18.835Z,99.90
2018-06-12T05:41:15.226Z,99.90
2018-06-12T05:43:43.631Z,99.90
2018-06-12T05:46:13.013Z,99.90
2018-06-12T05:48:41.384Z,99.90
2018-06-12T05:51:09.748Z,99.90
2018-06-12T05:53:38.168Z,99.90
2018-06-12T05:56:06.571Z,99.90
2018-06-12T05:58:34.931Z,99.90
2018-06-12T06:01:04.519Z,99.90
2018-06-12T06:03:32.805Z,99.90
2018-06-12T06:06:01.164Z,99.90
2018-06-12T06:08:29.537Z,99.90
2018-06-12T06:10:57.903Z,99.90
2018-06-12T06:13:26.273Z,99.90
2018-06-12T06:18:23.376Z,99.90
2018-06-12T06:20:51.683Z,99.90
2018-06-12T06:23:20.014Z,99.90
2018-06-12T06:25:49.122Z,99.90
2018-06-12T06:28:18.300Z,99.90
2018-06-12T06:30:46.575Z,99.90
2018-06-12T06:33:15.026Z,99.90
2018-06-12T06:35:43.385Z,99.90
2018-06-12T06:38:11.699Z,99.90
2018-06-12T06:40:39.921Z,99.90
2018-06-12T06:43:08.231Z,99.90
2018-06-12T06:45:36.799Z,99.90
2018-06-12T06:48:05.113Z,99.90
2018-06-12T06:50:33.447Z,99.90
2018-06-12T06:53:01.709Z,99.90
2018-06-12T06:55:29.969Z,99.90
2018-06-12T06:57:58.466Z,99.90
2018-06-12T07:00:26.715Z,99.90
2018-06-12T07:02:54.951Z,99.90
2018-06-12T07:05:23.232Z,99.90
2018-06-12T07:07:51.578Z,99.90
2018-06-12T07:10:19.946Z,99.90
2018-06-12T07:12:48.235Z,99.90
2018-06-12T07:15:16.501Z,99.90
2018-06-12T07:17:44.833Z,99.90
2018-06-12T07:20:20.115Z,99.90
2018-06-12T07:22:48.405Z,99.90
2018-06-12T07:25:16.706Z,99.90
2018-06-12T07:27:44.899Z,99.90
2018-06-12T07:30:13.166Z,99.90
2018-06-12T07:32:42.664Z,99.30
2018-06-12T07:35:11.042Z,99.30
2018-06-12T07:37:39.540Z,99.90
2018-06-12T07:40:07.741Z,96.70
2018-06-12T07:42:35.971Z,98.70
2018-06-12T07:45:04.379Z,96.50
2018-06-12T07:47:32.734Z,95.40
2018-06-12T07:50:01.133Z,99.50
2018-06-12T07:52:29.368Z,95.00
2018-06-12T07:54:57.648Z,95.60
2018-06-12T07:57:25.962Z,94.70
2018-06-12T07:59:54.286Z,92.40
2018-06-12T08:02:22.574Z,93.10
2018-06-12T08:04:50.811Z,92.60
2018-06-12T08:09:47.134Z,90.40
2018-06-12T08:12:15.382Z,91.40
2018-06-12T08:14:43.700Z,93.80
2018-06-12T08:19:41.160Z,92.40
2018-06-12T08:22:10.258Z,91.60
2018-06-12T08:24:39.969Z,91.30
2018-06-12T08:27:08.341Z,92.00
2018-06-12T08:29:36.812Z,92.40
2018-06-12T08:32:05.235Z,92.60
2018-06-12T08:34:34.774Z,93.50
2018-06-12T08:37:03.919Z,93.00
2018-06-12T08:39:32.831Z,93.10
2018-06-12T08:42:01.373Z,92.20
2018-06-12T08:44:30.267Z,91.00
2018-06-12T08:46:58.672Z,92.70
2018-06-12T08:51:55.211Z,90.50
2018-06-12T08:54:23.579Z,90.00
2018-06-12T08:56:51.961Z,91.80
2018-06-12T08:59:21.112Z,91.10
2018-06-12T09:01:49.377Z,86.80
2018-06-12T09:04:18.354Z,83.50
2018-06-12T09:06:47.639Z,86.00
2018-06-12T09:09:15.966Z,83.40
2018-06-12T09:11:44.407Z,78.80
2018-06-12T09:14:12.772Z,79.20
2018-06-12T09:16:41.061Z,77.80
2018-06-12T09:19:09.554Z,76.50
2018-06-12T09:21:37.988Z,73.60
2018-06-12T09:24:06.317Z,81.60
2018-06-12T09:26:35.710Z,84.90
2018-06-12T09:29:04.254Z,82.60
2018-06-12T09:31:32.770Z,84.70
2018-06-12T09:34:01.294Z,87.70
2018-06-12T09:36:34.118Z,90.10
2018-06-12T09:39:05.865Z,90.90
2018-06-12T09:41:34.244Z,91.50
2018-06-12T09:44:02.715Z,91.00
2018-06-12T09:46:31.096Z,90.90
2018-06-12T09:48:59.619Z,91.10
2018-06-12T09:51:28.105Z,91.50
2018-06-12T09:53:56.560Z,91.30
2018-06-12T09:56:26.692Z,91.70
2018-06-12T09:58:55.162Z,91.50
2018-06-12T10:01:23.783Z,91.40
2018-06-12T10:03:53.043Z,91.80
2018-06-12T10:06:21.600Z,90.70
2018-06-12T10:08:50.140Z,88.00
2018-06-12T10:11:18.706Z,87.10
2018-06-12T10:13:47.113Z,87.70
2018-06-12T10:16:15.470Z,90.10
2018-06-12T10:18:43.928Z,89.20
2018-06-12T10:21:12.407Z,91.00
2018-06-12T10:23:41.051Z,92.30
2018-06-12T10:26:10.442Z,92.90
2018-06-12T10:31:07.780Z,94.30
2018-06-12T10:33:36.274Z,95.10
2018-06-12T10:36:04.903Z,94.70
2018-06-12T10:38:34.005Z,94.80
2018-06-12T10:41:05.281Z,93.80
2018-06-12T10:43:37.042Z,93.90
2018-06-12T10:46:06.004Z,94.50
2018-06-12T10:48:34.405Z,94.70
2018-06-12T10:51:03.048Z,93.20
2018-06-12T10:53:32.094Z,93.50
2018-06-12T10:56:05.212Z,93.80
2018-06-12T10:58:34.568Z,94.10
2018-06-12T11:01:02.957Z,94.40
2018-06-12T11:03:33.683Z,94.80
2018-06-12T11:06:02.836Z,96.50
2018-06-12T11:08:33.037Z,96.30
2018-06-12T11:11:05.871Z,96.80
2018-06-12T11:13:34.384Z,98.10
2018-06-12T11:18:31.977Z,98.80
2018-06-12T11:21:03.349Z,98.90
2018-06-12T11:23:31.899Z,98.30
2018-06-12T11:26:04.076Z,98.20
2018-06-12T11:28:33.274Z,98.60
2018-06-12T11:31:06.505Z,98.90
2018-06-12T11:33:37.804Z,99.40
2018-06-12T11:36:07.324Z,99.90
2018-06-12T11:41:06.842Z,99.90
2018-06-12T11:43:36.524Z,99.90
2018-06-12T11:46:05.793Z,99.90
2018-06-12T11:48:35.754Z,99.70
2018-06-12T11:51:06.888Z,98.80
2018-06-12T11:53:36.016Z,97.30
2018-06-12T11:56:06.094Z,97.70
2018-06-12T11:58:35.521Z,97.30
2018-06-12T12:01:04.745Z,94.80
2018-06-12T12:03:35.204Z,93.80
2018-06-12T12:06:05.373Z,94.40
2018-06-12T12:08:34.823Z,95.50
2018-06-12T12:11:03.877Z,95.70
2018-06-12T12:13:34.994Z,96.30
2018-06-12T12:16:05.601Z,96.30
2018-06-12T12:18:36.397Z,94.70
2018-06-12T12:21:04.927Z,95.50
2018-06-12T12:23:36.420Z,94.70
2018-06-12T12:26:06.893Z,95.60
2018-06-12T12:28:35.380Z,95.30
2018-06-12T12:31:04.480Z,95.40
2018-06-12T12:33:34.849Z,95.80
2018-06-12T12:36:03.526Z,95.20
2018-06-12T12:38:33.311Z,94.40
2018-06-12T12:41:03.428Z,93.60
2018-06-12T12:43:33.197Z,93.70
2018-06-12T12:46:02.854Z,93.60
2018-06-12T12:48:31.450Z,93.60
2018-06-12T12:51:00.937Z,93.60
2018-06-12T12:53:29.978Z,93.10
2018-06-12T12:56:01.062Z,93.30
2018-06-12T13:01:00.097Z,91.70
2018-06-12T13:03:30.626Z,92.70
2018-06-12T13:06:00.084Z,92.30
2018-06-12T13:08:32.685Z,92.00
2018-06-12T13:11:01.800Z,91.50
2018-06-12T13:13:31.210Z,92.70
2018-06-12T13:15:59.764Z,92.60
2018-06-12T13:18:28.452Z,91.70
2018-06-12T13:20:58.538Z,91.00
2018-06-12T13:23:28.675Z,91.40
2018-06-12T13:26:01.292Z,89.80
2018-06-12T13:28:33.616Z,88.00
2018-06-12T13:31:02.647Z,88.20
2018-06-12T13:33:31.884Z,88.70
2018-06-12T13:36:01.240Z,87.30
2018-06-12T13:38:31.338Z,86.80
2018-06-12T13:41:05.078Z,84.40
2018-06-12T13:43:35.392Z,86.60
2018-06-12T13:46:05.422Z,86.70
2018-06-12T13:48:38.541Z,88.50
2018-06-12T13:51:09.756Z,90.00
2018-06-12T13:53:40.707Z,90.90
2018-06-12T13:56:11.912Z,90.30
2018-06-12T13:58:44.394Z,87.20
2018-06-12T14:03:47.588Z,85.80
2018-06-12T14:06:17.259Z,86.60
2018-06-12T14:08:49.801Z,83.60
2018-06-12T14:11:21.932Z,82.00
2018-06-12T14:13:53.374Z,83.30
2018-06-12T14:16:27.226Z,83.90
2018-06-12T14:19:02.064Z,83.20
2018-06-12T14:24:07.502Z,82.80
2018-06-12T14:26:41.757Z,87.90
2018-06-12T14:29:15.294Z,86.00
2018-06-12T14:34:16.754Z,85.60
2018-06-12T14:36:50.071Z,87.30
2018-06-12T14:39:21.291Z,86.40
2018-06-12T14:41:52.403Z,85.10
2018-06-12T14:44:26.193Z,86.00
2018-06-12T14:46:58.244Z,83.20
2018-06-12T14:49:29.291Z,86.40
2018-06-12T14:52:05.778Z,87.00
2018-06-12T14:54:38.615Z,88.80
2018-06-12T14:57:09.444Z,89.80
2018-06-12T14:59:43.202Z,90.20
2018-06-12T15:02:16.253Z,90.50
2018-06-12T15:04:50.164Z,91.50
2018-06-12T15:07:23.733Z,91.30
2018-06-12T15:09:54.912Z,92.70
2018-06-12T15:17:37.886Z,94.70
2018-06-12T15:20:16.115Z,95.10
2018-06-12T15:25:36.303Z,97.20
2018-06-12T15:28:12.145Z,97.40
2018-06-12T15:30:49.194Z,98.10
2018-06-12T15:33:20.683Z,98.20
2018-06-12T15:35:54.569Z,98.90
2018-06-12T15:38:30.515Z,98.60
2018-06-12T15:41:03.562Z,99.40
2018-06-12T15:43:41.072Z,99.30
2018-06-12T15:46:15.488Z,99.20
2018-06-12T15:48:49.573Z,99.00
2018-06-12T15:51:18.008Z,97.20
2018-06-12T15:53:46.390Z,98.60
2018-06-12T15:56:14.721Z,99.90
2018-06-12T15:58:42.973Z,99.90
2018-06-12T16:01:11.200Z,99.90
2018-06-12T16:03:39.538Z,99.90
2018-06-12T16:06:07.825Z,99.90
2018-06-12T16:08:36.050Z,99.90
2018-06-12T16:11:04.303Z,99.90
2018-06-12T16:13:32.642Z,99.90
2018-06-12T16:16:00.843Z,99.90
2018-06-12T16:20:56.956Z,99.90
2018-06-12T16:23:25.196Z,99.90
2018-06-12T16:25:53.424Z,99.90
2018-06-12T16:28:21.680Z,99.90
2018-06-12T16:30:49.890Z,99.90
2018-06-12T16:33:18.097Z,99.90
2018-06-12T16:35:46.340Z,99.90
2018-06-12T16:40:42.457Z,99.90
2018-06-12T16:45:38.607Z,99.90
2018-06-12T16:48:06.849Z,99.90
2018-06-12T16:50:34.995Z,99.90
2018-06-12T16:53:03.229Z,99.90
2018-06-12T16:55:31.555Z,99.90
2018-06-12T16:57:59.751Z,99.90
2018-06-12T17:00:27.949Z,99.90
2018-06-12T17:02:56.149Z,99.90
2018-06-12T17:07:52.330Z,99.90
2018-06-12T17:10:20.678Z,99.90
2018-06-12T17:12:48.903Z,99.90
2018-06-12T17:15:17.185Z,99.90
2018-06-12T17:17:45.492Z,99.90
2018-06-12T17:20:13.729Z,99.90
2018-06-12T17:22:42.013Z,99.90
2018-06-12T17:25:10.318Z,99.90
2018-06-12T17:27:38.606Z,99.90
2018-06-12T17:30:06.854Z,99.90
2018-06-12T17:32:35.191Z,99.90
2018-06-12T17:35:03.554Z,99.90
2018-06-12T17:37:31.952Z,99.90
2018-06-12T17:40:00.281Z,99.90
2018-06-12T17:42:28.562Z,99.90
2018-06-12T17:44:56.943Z,99.90
2018-06-12T17:47:25.268Z,99.90
2018-06-12T17:49:53.569Z,99.90
2018-06-12T17:52:21.956Z,99.90
2018-06-12T17:54:50.332Z,99.90
2018-06-12T17:57:18.606Z,99.90
2018-06-12T17:59:46.934Z,99.90
2018-06-12T18:02:15.225Z,99.90
2018-06-12T18:04:43.560Z,99.90
2018-06-12T18:07:11.940Z,99.90
2018-06-12T18:09:40.312Z,99.90
2018-06-12T18:12:08.626Z,99.90
2018-06-12T18:14:37.087Z,99.90
2018-06-12T18:17:05.453Z,99.90
2018-06-12T18:19:33.832Z,99.90
2018-06-12T18:22:02.210Z,99.90
2018-06-12T18:24:30.580Z,99.90
2018-06-12T18:26:58.924Z,99.90
2018-06-12T18:29:27.364Z,99.90
2018-06-12T18:31:56.620Z,99.90
2018-06-12T18:34:24.998Z,99.90
2018-06-12T18:36:54.477Z,99.90
2018-06-12T18:39:23.011Z,99.90
2018-06-12T18:41:52.072Z,99.90
2018-06-12T18:44:20.509Z,99.90
2018-06-12T18:46:49.515Z,99.90
2018-06-12T18:49:17.953Z,99.90
2018-06-12T18:51:46.347Z,99.90
2018-06-12T18:54:15.330Z,99.90
2018-06-12T18:56:44.604Z,99.90
2018-06-12T18:59:13.079Z,99.90
2018-06-12T19:01:42.509Z,99.90
2018-06-12T19:04:11.461Z,99.90
2018-06-12T19:06:39.883Z,99.90
2018-06-12T19:09:08.467Z,99.90
2018-06-12T19:11:36.903Z,99.90
2018-06-12T19:14:05.322Z,99.90
2018-06-12T19:16:33.906Z,99.90
2018-06-12T19:19:02.284Z,99.90
2018-06-12T19:21:30.791Z,99.90
2018-06-12T19:23:59.128Z,99.90
2018-06-12T19:26:27.427Z,99.90
2018-06-12T19:28:55.782Z,99.90
2018-06-12T19:31:26.112Z,99.90
2018-06-12T19:46:09.506Z,99.90
2018-06-12T19:48:37.736Z,99.90
2018-06-12T19:51:05.978Z,99.90
2018-06-12T19:53:34.157Z,99.90
2018-06-12T19:56:02.318Z,99.90
2018-06-12T19:58:30.426Z,99.90
2018-06-12T20:00:58.861Z,99.90
2018-06-12T20:03:27.013Z,99.90
2018-06-12T20:05:55.219Z,99.90
2018-06-12T20:08:23.409Z,99.90
2018-06-12T20:10:51.624Z,99.90
2018-06-12T20:13:19.762Z,99.90
2018-06-12T20:15:47.920Z,99.90
2018-06-12T20:18:16.143Z,99.90
2018-06-12T20:20:44.246Z,99.90
2018-06-12T20:25:40.346Z,99.90
2018-06-12T20:28:08.453Z,99.90
2018-06-12T20:33:04.586Z,99.90
2018-06-12T20:35:32.766Z,99.90
2018-06-12T20:38:00.914Z,99.90
2018-06-12T20:40:29.359Z,99.90
2018-06-12T20:42:57.497Z,99.90
2018-06-12T20:47:53.634Z,99.90
2018-06-12T20:50:21.885Z,99.90
2018-06-12T20:52:50.064Z,99.90
2018-06-12T20:55:18.329Z,99.90
2018-06-12T20:57:46.508Z,99.90
2018-06-12T21:00:14.702Z,99.90
2018-06-12T21:02:43.027Z,99.90
2018-06-12T21:05:11.279Z,99.90
2018-06-12T21:07:39.412Z,99.90
2018-06-12T21:10:07.762Z,99.90
2018-06-12T21:12:35.906Z,99.90
2018-06-12T21:15:04.177Z,99.90
2018-06-12T21:17:32.330Z,99.90
2018-06-12T21:20:00.439Z,99.90
2018-06-12T21:22:28.542Z,99.90
2018-06-12T21:24:56.694Z,99.90
2018-06-12T21:27:24.905Z,99.90
2018-06-12T21:29:53.097Z,99.90
2018-06-12T21:32:21.183Z,99.90
2018-06-12T21:34:49.265Z,99.90
2018-06-12T21:37:17.478Z,99.90
2018-06-12T21:39:45.600Z,99.90
2018-06-12T21:42:13.708Z,99.90
2018-06-12T21:44:41.801Z,99.90
2018-06-12T21:47:10.523Z,99.90
2018-06-12T21:49:38.759Z,99.90
2018-06-12T21:52:06.929Z,99.90
2018-06-12T21:54:35.047Z,99.90
2018-06-12T21:57:03.182Z,99.90
2018-06-12T21:59:31.305Z,99.90
2018-06-12T22:01:59.435Z,99.90
2018-06-12T22:04:27.548Z,99.90
2018-06-12T22:06:55.677Z,99.90
2018-06-12T22:09:23.788Z,99.90
2018-06-12T22:11:51.905Z,99.90
2018-06-12T22:14:20.002Z,99.90
2018-06-12T22:16:48.118Z,99.90
2018-06-12T22:19:16.295Z,99.90
2018-06-12T22:21:44.450Z,99.90
2018-06-12T22:24:12.603Z,99.90
2018-06-12T22:26:40.739Z,99.90
2018-06-12T22:29:08.899Z,99.90
2018-06-12T22:34:04.987Z,99.90
2018-06-12T22:36:33.095Z,99.90
2018-06-12T22:39:01.202Z,99.90
2018-06-12T22:41:29.444Z,99.90
2018-06-12T22:43:57.595Z,99.90
2018-06-12T22:46:25.779Z,99.90
2018-06-12T22:48:53.945Z,99.90
2018-06-12T22:51:22.138Z,99.90
2018-06-12T22:53:50.289Z,99.90
2018-06-12T22:56:18.462Z,99.90
2018-06-12T22:58:46.580Z,99.90
2018-06-12T23:03:42.599Z,99.90
2018-06-12T23:06:10.685Z,99.90
2018-06-12T23:08:38.789Z,99.90
2018-06-12T23:11:07.018Z,99.90
2018-06-12T23:13:35.144Z,99.90
2018-06-12T23:16:03.268Z,99.90
2018-06-12T23:18:31.390Z,99.90
2018-06-12T23:22:05.345Z,99.90
2018-06-12T23:24:33.481Z,99.90
2018-06-12T23:27:01.629Z,99.90
2018-06-12T23:29:30.635Z,99.90
2018-06-12T23:31:58.783Z,99.90
2018-06-12T23:34:26.904Z,99.90
2018-06-12T23:36:55.057Z,99.90
2018-06-12T23:39:23.243Z,99.90
2018-06-12T23:41:51.361Z,99.90
2018-06-12T23:44:19.527Z,99.90
2018-06-12T23:46:47.626Z,99.90
2018-06-12T23:49:15.715Z,99.90
2018-06-12T23:51:43.839Z,99.90
2018-06-12T23:54:12.009Z,99.90
2018-06-12T23:56:40.141Z,99.90
2018-06-12T23:59:08.282Z,99.90
